| time (UTC) | temp F | wind direction | speed MPH | gust MPH | rain 1hr in | rain 24hr in | rain mn in | humidity % | barometer mb |
| 20260906174944 | 85 | 122 | 4.0 | 13.0 | 0.00 | 0.00 | 0.00 | 63 | 1020.6 |
| 20260906171945 | 84 | 148 | 3.0 | 12.0 | 0.00 | 0.00 | 0.00 | 66 | 1020.8 |
| 20260906164942 | 83 | 150 | 3.0 | 10.0 | 0.00 | 0.00 | 0.00 | 68 | 1021.1 |
| 20260906154941 | 80 | 94 | 3.0 | 11.0 | 0.00 | 0.00 | 0.00 | 72 | 1021.4 |
| 20260906151941 | 79 | 145 | 3.0 | 11.0 | 0.00 | 0.00 | 0.00 | 75 | 1021.6 |
| 20260906144940 | 76 | 217 | 3.0 | 8.0 | 0.00 | 0.00 | 0.00 | 83 | 1021.5 |
| 20260906141940 | 73 | 140 | 2.0 | 7.0 | 0.00 | 0.00 | 0.00 | 91 | 1021.3 |
| 20260906134940 | 70 | 105 | 2.0 | 8.0 | 0.00 | 0.00 | 0.00 | 96 | 1021.3 |
| 20260906131934 | 69 | 131 | 1.0 | 4.0 | 0.00 | 0.00 | 0.00 | 96 | 1021.3 |
| 20260906124934 | 68 | 67 | 1.0 | 3.0 | 0.00 | 0.00 | 0.00 | 96 | 1021.3 |
| 20260906121935 | 65 | 202 | 0.0 | 0.0 | 0.00 | 0.00 | 0.00 | 95 | 1021.2 |
| 20260906114932 | 65 | 202 | 0.0 | 0.0 | 0.00 | 0.00 | 0.00 | 95 | 1021.1 |
| 20260906111930 | 66 | 202 | 0.0 | 0.0 | 0.00 | 0.00 | 0.00 | 95 | 1021.0 |
| 20260906101929 | 66 | 204 | 0.0 | 0.0 | 0.00 | 0.00 | 0.00 | 94 | 1020.5 |
| 20260906094929 | 66 | 204 | 0.0 | 0.0 | 0.00 | 0.00 | 0.00 | 94 | 1020.3 |
| 20260906091929 | 67 | 204 | 0.0 | 2.0 | 0.00 | 0.00 | 0.00 | 94 | 1020.0 |
| 20260906084929 | 67 | 200 | 0.0 | 2.0 | 0.00 | 0.00 | 0.00 | 94 | 1019.8 |
| 20260906081930 | 67 | 202 | 0.0 | 2.0 | 0.00 | 0.00 | 0.00 | 94 | 1019.9 |
| 20260906074930 | 67 | 202 | 0.0 | 2.0 | 0.00 | 0.00 | 0.00 | 94 | 1020.0 |
| 20260906071927 | 67 | 202 | 0.0 | 1.0 | 0.00 | 0.00 | 0.00 | 93 | 1020.1 |
| 20260906064927 | 67 | 202 | 0.0 | 0.0 | 0.00 | 0.00 | 0.00 | 92 | 1020.4 |
| 20260906054925 | 69 | 202 | 0.0 | 0.0 | 0.00 | 0.00 | 0.00 | 90 | 1020.2 |
| 20260906051925 | 70 | 202 | 0.0 | 0.0 | 0.00 | 0.00 | 0.00 | 87 | 1020.3 |
| 20260906044925 | 72 | 202 | 0.0 | 0.0 | 0.00 | 0.00 | 0.00 | 85 | 1020.2 |
| 20260906041922 | 73 | 202 | 0.0 | 2.0 | 0.00 | 0.00 | 0.00 | 85 | 1020.3 |
| 20260906034922 | 73 | 202 | 0.0 | 2.0 | 0.00 | 0.00 | 0.00 | 86 | 1020.4 |
| 20260906031922 | 72 | 202 | 1.0 | 5.0 | 0.00 | 0.00 | 0.00 | 88 | 1020.6 |
| 20260906014920 | 74 | 51 | 0.0 | 0.0 | 0.00 | 0.00 | 0.00 | 81 | 1019.4 |
| 20260906011920 | 76 | 51 | 0.0 | 0.0 | 0.00 | 0.00 | 0.00 | 79 | 1018.6 |
| 20260906001918 | 80 | 51 | 1.0 | 4.0 | 0.00 | 0.00 | 0.00 | 72 | 1017.8 |
| 20260905234918 | 81 | 331 | 2.0 | 9.0 | 0.00 | 0.00 | 0.00 | 70 | 1018.0 |
| 20260905231918 | 83 | 55 | 3.0 | 9.0 | 0.00 | 0.00 | 0.00 | 66 | 1017.8 |
| 20260905224917 | 85 | 325 | 3.0 | 13.0 | 0.00 | 0.00 | 0.00 | 64 | 1017.8 |
| 20260905221917 | 85 | 44 | 3.0 | 11.0 | 0.00 | 0.00 | 0.00 | 61 | 1017.4 |
| 20260905214918 | 86 | 355 | 3.0 | 9.0 | 0.00 | 0.00 | 0.00 | 60 | 1017.6 |
| 20260905194917 | 83 | 110 | 3.0 | 7.0 | 0.00 | 0.00 | 0.00 | 66 | 1019.7 |
| 20260905191918 | 83 | 73 | 2.0 | 7.0 | 0.00 | 0.00 | 0.00 | 67 | 1020.0 |
| 20260905184917 | 81 | 70 | 2.0 | 7.0 | 0.00 | 0.00 | 0.00 | 71 | 1020.2 |